createdAt,value
2019-04-25T00:00:48.463Z,97429.00
2019-04-25T00:03:19.632Z,97428.00
2019-04-25T00:05:49.319Z,97436.00
2019-04-25T00:08:19.123Z,97443.00
2019-04-25T00:10:48.462Z,97441.00
2019-04-25T00:13:17.735Z,97435.00
2019-04-25T00:15:48.093Z,97436.00
2019-04-25T00:18:17.384Z,97439.00
2019-04-25T00:20:48.807Z,97432.00
2019-04-25T00:23:19.329Z,97430.00
2019-04-25T00:25:53.251Z,97435.00
2019-04-25T00:28:22.512Z,97426.00
2019-04-25T00:30:53.082Z,97423.00
2019-04-25T00:33:22.681Z,97420.00
2019-04-25T00:35:52.764Z,97421.00
2019-04-25T00:38:22.409Z,97424.00
2019-04-25T00:40:52.442Z,97421.00
2019-04-25T00:43:22.914Z,97431.00
2019-04-25T00:45:52.747Z,97422.00
2019-04-25T00:48:22.374Z,97429.00
2019-04-25T00:50:54.474Z,97426.00
2019-04-25T00:53:22.735Z,97426.00
2019-04-25T00:55:53.615Z,97433.00
2019-04-25T00:58:43.091Z,97422.00
2019-04-25T01:01:29.014Z,97435.00
2019-04-25T01:03:58.623Z,97428.00
2019-04-25T01:06:28.234Z,97436.00
2019-04-25T01:08:57.757Z,97430.00
2019-04-25T01:11:27.022Z,97443.00
2019-04-25T01:13:56.542Z,97440.00
2019-04-25T01:16:26.058Z,97449.00
2019-04-25T01:18:55.660Z,97447.00
2019-04-25T01:21:25.350Z,97443.00
2019-04-25T01:23:55.703Z,97448.00
2019-04-25T01:26:25.231Z,97441.00
2019-04-25T01:28:54.964Z,97440.00
2019-04-25T01:31:25.976Z,97441.00
2019-04-25T01:33:55.701Z,97450.00
2019-04-25T01:36:36.223Z,97457.00
2019-04-25T01:39:21.660Z,97445.00
2019-04-25T01:41:58.528Z,97447.00
2019-04-25T01:44:29.828Z,97439.00
2019-04-25T01:46:59.167Z,97438.00
2019-04-25T01:49:28.728Z,97449.00
2019-04-25T01:51:59.249Z,97465.00
2019-04-25T01:54:29.073Z,97472.00
2019-04-25T01:56:59.332Z,97454.00
2019-04-25T01:59:28.916Z,97455.00
2019-04-25T02:01:58.873Z,97456.00
2019-04-25T02:04:28.125Z,97452.00
2019-04-25T02:06:57.391Z,97463.00
2019-04-25T02:09:26.799Z,97468.00
2019-04-25T02:11:57.710Z,97478.00
2019-04-25T02:14:26.976Z,97473.00
2019-04-25T02:16:57.244Z,97478.00
2019-04-25T02:19:27.484Z,97480.00
2019-04-25T02:21:57.812Z,97479.00
2019-04-25T02:24:27.156Z,97484.00
2019-04-25T02:26:57.260Z,97487.00
2019-04-25T02:29:26.578Z,97489.00
2019-04-25T02:31:59.189Z,97484.00
2019-04-25T02:34:27.152Z,97494.00
2019-04-25T02:36:59.506Z,97485.00
2019-04-25T02:39:27.679Z,97490.00
2019-04-25T02:42:00.290Z,97483.00
2019-04-25T02:44:28.196Z,97492.00
2019-04-25T02:47:08.494Z,97487.00
2019-04-25T02:49:45.274Z,97483.00
2019-04-25T02:52:18.041Z,97488.00
2019-04-25T02:54:47.176Z,97490.00
2019-04-25T02:57:16.458Z,97480.00
2019-04-25T02:59:45.731Z,97478.00
2019-04-25T03:02:15.660Z,97476.00
2019-04-25T03:04:45.106Z,97470.00
2019-04-25T03:07:17.521Z,97483.00
2019-04-25T03:09:45.945Z,97486.00
2019-04-25T03:12:29.181Z,97490.00
2019-04-25T03:14:46.275Z,97494.00
2019-04-25T03:17:15.827Z,97500.00
2019-04-25T03:19:46.746Z,97502.00
2019-04-25T03:22:20.089Z,97493.00
2019-04-25T03:24:49.737Z,97497.00
2019-04-25T03:27:19.004Z,97498.00
2019-04-25T03:29:48.276Z,97500.00
2019-04-25T03:32:20.008Z,97510.00
2019-04-25T03:34:48.543Z,97496.00
2019-04-25T03:37:17.795Z,97498.00
2019-04-25T03:39:47.063Z,97511.00
2019-04-25T03:42:16.333Z,97516.00
2019-04-25T03:44:45.597Z,97512.00
2019-04-25T03:47:14.860Z,97505.00
2019-04-25T03:49:44.120Z,97504.00
2019-04-25T03:52:14.210Z,97515.00
2019-04-25T03:54:43.891Z,97513.00
2019-04-25T03:57:14.642Z,97501.00
2019-04-25T03:59:44.931Z,97499.00
2019-04-25T04:02:15.225Z,97495.00
2019-04-25T04:04:44.535Z,97484.00
2019-04-25T04:07:14.753Z,97481.00
2019-04-25T04:09:45.466Z,97485.00
2019-04-25T04:12:15.742Z,97463.00
2019-04-25T04:14:45.121Z,97458.00
2019-04-25T04:17:34.404Z,97434.00
2019-04-25T04:20:07.158Z,97416.00
2019-04-25T04:22:54.491Z,97418.00
2019-04-25T04:25:24.137Z,97431.00
2019-04-25T04:27:53.869Z,97438.00
2019-04-25T04:30:24.168Z,97450.00
2019-04-25T04:32:53.793Z,97452.00
2019-04-25T04:35:23.558Z,97482.00
2019-04-25T04:37:54.167Z,97487.00
2019-04-25T04:40:24.290Z,97495.00
2019-04-25T04:42:53.857Z,97498.00
2019-04-25T04:45:23.354Z,97497.00
2019-04-25T04:47:53.316Z,97495.00
2019-04-25T04:50:23.291Z,97493.00
2019-04-25T04:52:54.168Z,97496.00
2019-04-25T04:55:23.440Z,97495.00
2019-04-25T04:57:54.175Z,97493.00
2019-04-25T05:00:25.149Z,97488.00
2019-04-25T05:03:13.050Z,97487.00
2019-04-25T05:05:56.935Z,97471.00
2019-04-25T05:08:36.826Z,97475.00
2019-04-25T05:11:06.106Z,97470.00
2019-04-25T05:13:35.376Z,97469.00
2019-04-25T05:16:04.647Z,97465.00
2019-04-25T05:18:39.489Z,97460.00
2019-04-25T05:21:04.923Z,97467.00
2019-04-25T05:23:34.468Z,97470.00
2019-04-25T05:26:04.377Z,97480.00
2019-04-25T05:28:33.796Z,97476.00
2019-04-25T05:31:10.633Z,97471.00
2019-04-25T05:33:39.938Z,97471.00
2019-04-25T05:36:09.522Z,97473.00
2019-04-25T05:38:38.788Z,97473.00
2019-04-25T05:41:28.093Z,97480.00
2019-04-25T05:43:57.363Z,97478.00
2019-04-25T05:46:26.894Z,97474.00
2019-04-25T05:48:56.164Z,97474.00
2019-04-25T05:51:25.978Z,97481.00
2019-04-25T05:53:55.298Z,97478.00
2019-04-25T05:56:26.866Z,97473.00
2019-04-25T05:58:55.640Z,97482.00
2019-04-25T06:01:27.593Z,97482.00
2019-04-25T06:03:55.917Z,97481.00
2019-04-25T06:06:26.070Z,97483.00
2019-04-25T06:09:04.137Z,97480.00
2019-04-25T06:11:37.737Z,97472.00
2019-04-25T06:14:08.655Z,97475.00
2019-04-25T06:16:38.409Z,97467.00
2019-04-25T06:19:16.385Z,97473.00
2019-04-25T06:21:43.530Z,97463.00
2019-04-25T06:24:14.559Z,97462.00
2019-04-25T06:26:53.852Z,97458.00
2019-04-25T06:29:23.942Z,97463.00
2019-04-25T06:32:04.189Z,97459.00
2019-04-25T06:34:28.393Z,97459.00
2019-04-25T06:36:56.739Z,97461.00
2019-04-25T06:39:26.402Z,97449.00
2019-04-25T06:41:55.623Z,97449.00
2019-04-25T06:44:29.511Z,97455.00
2019-04-25T06:47:09.376Z,97458.00
2019-04-25T06:49:47.353Z,97454.00
2019-04-25T06:52:16.650Z,97454.00
2019-04-25T06:54:46.213Z,97453.00
2019-04-25T06:57:15.815Z,97448.00
2019-04-25T06:59:45.408Z,97434.00
2019-04-25T07:02:14.759Z,97439.00
2019-04-25T07:04:45.660Z,97438.00
2019-04-25T07:07:15.371Z,97434.00
2019-04-25T07:09:45.002Z,97434.00
2019-04-25T07:12:14.587Z,97439.00
2019-04-25T07:14:44.089Z,97437.00
2019-04-25T07:17:14.307Z,97433.00
2019-04-25T07:19:44.163Z,97427.00
2019-04-25T07:22:13.923Z,97433.00
2019-04-25T07:24:44.713Z,97433.00
2019-04-25T07:27:15.928Z,97418.00
2019-04-25T07:30:03.929Z,97425.00
2019-04-25T07:32:35.745Z,97419.00
2019-04-25T07:35:06.701Z,97409.00
2019-04-25T07:37:37.350Z,97404.00
2019-04-25T07:40:08.567Z,97399.00
2019-04-25T07:42:38.077Z,97410.00
2019-04-25T07:45:09.151Z,97395.00
2019-04-25T07:47:38.457Z,97396.00
2019-04-25T07:50:08.630Z,97401.00
2019-04-25T07:52:37.898Z,97405.00
2019-04-25T07:55:07.602Z,97390.00
2019-04-25T07:57:37.119Z,97386.00
2019-04-25T08:00:15.643Z,97390.00
2019-04-25T08:02:45.354Z,97389.00
2019-04-25T08:05:18.036Z,97379.00
2019-04-25T08:07:47.374Z,97386.00
2019-04-25T08:10:18.480Z,97380.00
2019-04-25T08:12:47.761Z,97384.00
2019-04-25T08:15:18.908Z,97385.00
2019-04-25T08:18:03.934Z,97388.00
2019-04-25T08:20:34.740Z,97380.00
2019-04-25T08:23:05.369Z,97384.00
2019-04-25T08:25:37.664Z,97389.00
2019-04-25T08:28:05.837Z,97382.00
2019-04-25T08:30:36.401Z,97382.00
2019-04-25T08:33:06.292Z,97380.00
2019-04-25T08:35:36.553Z,97373.00
2019-04-25T08:38:06.177Z,97371.00
2019-04-25T08:40:37.304Z,97368.00
2019-04-25T08:43:06.929Z,97357.00
2019-04-25T08:48:07.357Z,97357.00
2019-04-25T08:50:54.401Z,97356.00
2019-04-25T08:53:25.308Z,97360.00
2019-04-25T08:55:56.567Z,97367.00
2019-04-25T08:58:45.295Z,97366.00
2019-04-25T09:01:18.871Z,97360.00
2019-04-25T09:03:58.657Z,97356.00
2019-04-25T09:06:27.933Z,97361.00
2019-04-25T09:08:57.205Z,97348.00
2019-04-25T09:11:26.890Z,97347.00
2019-04-25T09:13:56.156Z,97347.00
2019-04-25T09:16:25.424Z,97352.00
2019-04-25T09:18:54.992Z,97332.00
2019-04-25T09:21:24.600Z,97338.00
2019-04-25T09:23:53.881Z,97335.00
2019-04-25T09:26:24.145Z,97335.00
2019-04-25T09:28:53.752Z,97333.00
2019-04-25T09:31:23.690Z,97334.00
2019-04-25T09:33:54.634Z,97326.00
2019-04-25T09:36:24.134Z,97326.00
2019-04-25T09:38:55.036Z,97325.00
2019-04-25T09:41:24.315Z,97321.00
2019-04-25T09:43:55.225Z,97318.00
2019-04-25T09:46:26.413Z,97322.00
2019-04-25T09:49:06.767Z,97315.00
2019-04-25T09:51:38.018Z,97315.00
2019-04-25T09:54:25.512Z,97311.00
2019-04-25T09:57:05.679Z,97312.00
2019-04-25T09:59:35.286Z,97307.00
2019-04-25T10:02:07.420Z,97298.00
2019-04-25T10:04:36.912Z,97304.00
2019-04-25T10:07:07.029Z,97303.00
2019-04-25T10:09:36.303Z,97297.00
2019-04-25T10:12:05.707Z,97293.00
2019-04-25T10:14:59.970Z,97290.00
2019-04-25T10:17:29.245Z,97293.00
2019-04-25T10:19:58.515Z,97279.00
2019-04-25T10:22:29.033Z,97281.00
2019-04-25T10:25:00.701Z,97279.00
2019-04-25T10:27:29.570Z,97275.00
2019-04-25T10:29:58.854Z,97279.00
2019-04-25T10:32:28.364Z,97273.00
2019-04-25T10:34:57.648Z,97266.00
2019-04-25T10:37:26.993Z,97261.00
2019-04-25T10:39:56.582Z,97267.00
2019-04-25T10:42:26.190Z,97254.00
2019-04-25T10:44:56.614Z,97249.00
2019-04-25T10:47:26.055Z,97255.00
2019-04-25T10:49:55.551Z,97247.00
2019-04-25T10:52:25.130Z,97242.00
2019-04-25T10:54:54.437Z,97230.00
2019-04-25T10:57:24.923Z,97224.00
2019-04-25T11:00:06.286Z,97229.00
2019-04-25T11:02:26.939Z,97218.00
2019-04-25T11:05:07.147Z,97211.00
2019-04-25T11:07:36.704Z,97213.00
2019-04-25T11:10:08.127Z,97209.00
2019-04-25T11:12:37.657Z,97205.00
2019-04-25T11:15:07.711Z,97202.00
2019-04-25T11:17:37.061Z,97203.00
2019-04-25T11:20:06.988Z,97200.00
2019-04-25T11:22:36.601Z,97205.00
2019-04-25T11:25:06.110Z,97205.00
2019-04-25T11:27:35.667Z,97198.00
2019-04-25T11:30:10.926Z,97198.00
2019-04-25T11:32:37.282Z,97192.00
2019-04-25T11:35:07.411Z,97194.00
2019-04-25T11:37:37.015Z,97193.00
2019-04-25T11:40:15.544Z,97190.00
2019-04-25T11:42:45.971Z,97185.00
2019-04-25T11:45:16.058Z,97187.00
2019-04-25T11:47:46.961Z,97181.00
2019-04-25T11:50:17.029Z,97180.00
2019-04-25T11:52:46.928Z,97185.00
2019-04-25T11:55:16.516Z,97167.00
2019-04-25T11:57:49.866Z,97172.00
2019-04-25T12:00:22.287Z,97164.00
2019-04-25T12:02:50.907Z,97164.00
2019-04-25T12:05:20.716Z,97166.00
2019-04-25T12:07:50.327Z,97173.00
2019-04-25T12:10:20.647Z,97173.00
2019-04-25T12:12:49.940Z,97166.00
2019-04-25T12:15:19.265Z,97165.00
2019-04-25T12:17:49.528Z,97164.00
2019-04-25T12:20:18.978Z,97155.00
2019-04-25T12:22:48.589Z,97144.00
2019-04-25T12:25:17.933Z,97146.00
2019-04-25T12:27:48.655Z,97140.00
2019-04-25T12:30:18.844Z,97143.00
2019-04-25T12:32:48.122Z,97143.00
2019-04-25T12:35:17.387Z,97151.00
2019-04-25T12:37:48.013Z,97143.00
2019-04-25T12:40:17.658Z,97155.00
2019-04-25T12:42:47.848Z,97138.00
2019-04-25T12:45:21.776Z,97134.00
2019-04-25T12:47:57.268Z,97127.00
2019-04-25T12:50:24.717Z,97132.00
2019-04-25T12:52:55.045Z,97126.00
2019-04-25T12:55:25.057Z,97116.00
2019-04-25T12:57:55.402Z,97125.00
2019-04-25T13:00:27.035Z,97123.00
2019-04-25T13:02:56.708Z,97121.00
2019-04-25T13:05:25.911Z,97125.00
2019-04-25T13:07:57.397Z,97117.00
2019-04-25T13:10:26.184Z,97117.00
2019-04-25T13:12:55.556Z,97116.00
2019-04-25T13:15:25.790Z,97117.00
2019-04-25T13:17:56.229Z,97121.00
2019-04-25T13:20:25.572Z,97124.00
2019-04-25T13:22:55.829Z,97133.00
2019-04-25T13:25:25.163Z,97125.00
2019-04-25T13:27:56.070Z,97113.00
2019-04-25T13:30:29.647Z,97111.00
2019-04-25T13:33:00.559Z,97120.00
2019-04-25T13:35:31.471Z,97117.00
2019-04-25T13:38:01.343Z,97116.00
2019-04-25T13:40:30.702Z,97112.00
2019-04-25T13:43:00.149Z,97112.00
2019-04-25T13:45:29.515Z,97110.00
2019-04-25T13:47:59.112Z,97104.00
2019-04-25T13:50:29.632Z,97115.00
2019-04-25T13:52:58.980Z,97115.00
2019-04-25T13:55:28.552Z,97098.00
2019-04-25T13:57:58.154Z,97098.00
2019-04-25T14:00:27.816Z,97094.00
2019-04-25T14:02:57.040Z,97094.00
2019-04-25T14:05:28.284Z,97100.00
2019-04-25T14:07:57.914Z,97089.00
2019-04-25T14:10:28.077Z,97077.00
2019-04-25T14:12:57.449Z,97080.00
2019-04-25T14:15:27.507Z,97075.00
2019-04-25T14:18:01.185Z,97072.00
2019-04-25T14:20:34.825Z,97058.00
2019-04-25T14:23:05.478Z,97070.00
2019-04-25T14:25:35.298Z,97065.00
2019-04-25T14:28:05.660Z,97067.00
2019-04-25T14:30:36.031Z,97060.00
2019-04-25T14:33:05.620Z,97057.00
2019-04-25T14:35:35.274Z,97058.00
2019-04-25T14:38:04.550Z,97051.00
2019-04-25T14:40:33.904Z,97052.00
2019-04-25T14:43:04.851Z,97052.00
2019-04-25T14:45:43.027Z,97058.00
2019-04-25T14:48:05.497Z,97056.00
2019-04-25T14:50:36.143Z,97050.00
2019-04-25T14:53:06.340Z,97053.00
2019-04-25T14:55:43.391Z,97045.00
2019-04-25T14:58:14.500Z,97044.00
2019-04-25T15:00:45.485Z,97045.00
2019-04-25T15:03:14.764Z,97044.00
2019-04-25T15:05:44.393Z,97038.00
2019-04-25T15:08:14.000Z,97043.00
2019-04-25T15:10:43.287Z,97035.00
2019-04-25T15:13:12.907Z,97027.00
2019-04-25T15:15:42.810Z,97038.00
2019-04-25T15:18:12.438Z,97037.00
2019-04-25T15:20:42.038Z,97040.00
2019-04-25T15:23:11.309Z,97038.00
2019-04-25T15:25:41.250Z,97041.00
2019-04-25T15:28:10.650Z,97044.00
2019-04-25T15:30:40.504Z,97032.00
2019-04-25T15:33:10.081Z,97035.00
2019-04-25T15:35:50.205Z,97031.00
2019-04-25T15:38:27.309Z,97032.00
2019-04-25T15:41:14.617Z,97042.00
2019-04-25T15:43:57.503Z,97039.00
2019-04-25T15:46:28.424Z,97036.00
2019-04-25T15:48:57.699Z,97033.00
2019-04-25T15:51:27.302Z,97029.00
2019-04-25T15:53:56.576Z,97030.00
2019-04-25T15:56:26.163Z,97035.00
2019-04-25T15:58:55.435Z,97035.00
2019-04-25T16:01:26.353Z,97028.00
2019-04-25T16:03:55.668Z,97028.00
2019-04-25T16:06:25.546Z,97023.00
2019-04-25T16:08:55.874Z,97015.00
2019-04-25T16:11:26.558Z,97024.00
2019-04-25T16:13:55.886Z,97025.00
2019-04-25T16:16:26.746Z,97030.00
2019-04-25T16:18:56.571Z,97030.00
2019-04-25T16:21:26.749Z,97032.00
2019-04-25T16:23:56.980Z,97037.00
2019-04-25T16:26:26.982Z,97039.00
2019-04-25T16:28:57.561Z,97041.00
2019-04-25T16:31:28.903Z,97031.00
2019-04-25T16:33:58.021Z,97025.00
2019-04-25T16:36:27.360Z,97029.00
2019-04-25T16:38:56.651Z,97029.00
2019-04-25T16:41:25.996Z,97032.00
2019-04-25T16:43:56.915Z,97027.00
2019-04-25T16:46:27.762Z,97033.00
2019-04-25T16:48:58.254Z,97027.00
2019-04-25T16:51:28.330Z,97028.00
2019-04-25T16:53:57.737Z,97030.00
2019-04-25T16:56:27.009Z,97030.00
2019-04-25T16:58:56.551Z,97029.00
2019-04-25T17:01:25.886Z,97035.00
2019-04-25T17:03:55.166Z,97034.00
2019-04-25T17:06:24.958Z,97031.00
2019-04-25T17:08:54.498Z,97036.00
2019-04-25T17:11:23.839Z,97035.00
2019-04-25T17:13:54.744Z,97035.00
2019-04-25T17:16:29.552Z,97035.00
2019-04-25T17:19:01.457Z,97040.00
2019-04-25T17:21:31.327Z,97049.00
2019-04-25T17:24:01.123Z,97043.00
2019-04-25T17:26:31.469Z,97044.00
2019-04-25T17:29:02.549Z,97046.00
2019-04-25T17:31:49.936Z,97054.00
2019-04-25T17:34:20.851Z,97048.00
2019-04-25T17:37:08.582Z,97060.00
2019-04-25T17:39:39.808Z,97063.00
2019-04-25T17:42:09.155Z,97068.00
2019-04-25T17:44:38.458Z,97068.00
2019-04-25T17:47:08.040Z,97080.00
2019-04-25T17:49:37.315Z,97082.00
2019-04-25T17:52:06.838Z,97092.00
2019-04-25T17:54:36.707Z,97114.00
2019-04-25T17:57:06.567Z,97132.00
2019-04-25T17:59:36.831Z,97119.00
2019-04-25T18:02:06.267Z,97122.00
2019-04-25T18:04:35.546Z,97137.00
2019-04-25T18:07:04.984Z,97147.00
2019-04-25T18:09:34.448Z,97154.00
2019-04-25T18:12:05.058Z,97155.00
2019-04-25T18:14:35.192Z,97165.00
2019-04-25T18:17:04.797Z,97176.00
2019-04-25T18:19:36.356Z,97169.00
2019-04-25T18:22:10.344Z,97175.00
2019-04-25T18:24:57.165Z,97177.00
2019-04-25T18:27:28.077Z,97182.00
2019-04-25T18:29:57.356Z,97199.00
2019-04-25T18:32:28.529Z,97203.00
2019-04-25T18:34:59.684Z,97218.00
2019-04-25T18:37:30.591Z,97226.00
2019-04-25T18:40:10.216Z,97233.00
2019-04-25T18:42:57.502Z,97255.00
2019-04-25T18:45:28.792Z,97255.00
2019-04-25T18:47:58.061Z,97257.00
2019-04-25T18:50:28.978Z,97252.00
2019-04-25T18:53:16.040Z,97278.00
2019-04-25T18:55:49.816Z,97280.00
2019-04-25T18:58:39.811Z,97277.00
2019-04-25T19:01:10.754Z,97282.00
2019-04-25T19:03:58.055Z,97303.00
2019-04-25T19:06:28.554Z,97308.00
2019-04-25T19:08:57.831Z,97317.00
2019-04-25T19:11:27.349Z,97326.00
2019-04-25T19:13:56.966Z,97335.00
2019-04-25T19:16:26.491Z,97326.00
2019-04-25T19:18:56.082Z,97345.00
2019-04-25T19:21:25.425Z,97328.00
2019-04-25T19:23:54.696Z,97348.00
2019-04-25T19:26:23.970Z,97355.00
2019-04-25T19:28:53.592Z,97360.00
2019-04-25T19:31:23.198Z,97380.00
2019-04-25T19:33:52.807Z,97364.00
2019-04-25T19:36:22.085Z,97375.00
2019-04-25T19:38:52.436Z,97367.00
2019-04-25T19:41:23.404Z,97393.00
2019-04-25T19:43:54.618Z,97379.00
2019-04-25T19:46:25.798Z,97407.00
2019-04-25T19:48:55.049Z,97393.00
2019-04-25T19:51:26.465Z,97403.00
2019-04-25T19:53:55.611Z,97406.00
2019-04-25T19:56:24.880Z,97400.00
2019-04-25T19:58:54.218Z,97421.00
2019-04-25T20:01:23.833Z,97434.00
2019-04-25T20:04:10.926Z,97440.00
2019-04-25T20:06:58.244Z,97449.00
2019-04-25T20:09:45.584Z,97440.00
2019-04-25T20:12:14.862Z,97429.00
2019-04-25T20:14:45.442Z,97463.00
2019-04-25T20:17:15.021Z,97462.00
2019-04-25T20:19:44.914Z,97462.00
2019-04-25T20:22:15.055Z,97478.00
2019-04-25T20:24:45.318Z,97472.00
2019-04-25T20:27:15.343Z,97480.00
2019-04-25T20:29:45.228Z,97489.00
2019-04-25T20:32:15.669Z,97491.00
2019-04-25T20:34:46.058Z,97491.00
2019-04-25T20:37:16.183Z,97477.00
2019-04-25T20:39:46.032Z,97487.00
2019-04-25T20:42:15.313Z,97499.00
2019-04-25T20:44:45.410Z,97515.00
2019-04-25T20:47:15.709Z,97521.00
2019-04-25T20:49:46.612Z,97517.00
2019-04-25T20:52:15.940Z,97519.00
2019-04-25T20:54:45.217Z,97524.00
2019-04-25T20:57:14.487Z,97533.00
2019-04-25T20:59:43.764Z,97534.00
2019-04-25T21:02:13.388Z,97530.00
2019-04-25T21:04:42.661Z,97525.00
2019-04-25T21:07:12.497Z,97540.00
2019-04-25T21:09:41.763Z,97525.00
2019-04-25T21:12:11.307Z,97524.00
2019-04-25T21:14:51.030Z,97544.00
2019-04-25T21:17:22.297Z,97550.00
2019-04-25T21:19:56.314Z,97558.00
2019-04-25T21:22:26.017Z,97573.00
2019-04-25T21:24:55.831Z,97578.00
2019-04-25T21:27:25.534Z,97580.00
2019-04-25T21:29:55.609Z,97582.00
2019-04-25T21:32:24.970Z,97574.00
2019-04-25T21:34:55.214Z,97572.00
2019-04-25T21:37:25.826Z,97574.00
2019-04-25T21:39:58.034Z,97572.00
2019-04-25T21:42:29.642Z,97573.00
2019-04-25T21:45:00.406Z,97587.00
2019-04-25T21:47:29.724Z,97570.00
2019-04-25T21:49:59.280Z,97576.00
2019-04-25T21:52:29.086Z,97560.00
2019-04-25T21:54:59.547Z,97571.00
2019-04-25T21:57:29.431Z,97577.00
2019-04-25T22:00:06.652Z,97554.00
2019-04-25T22:02:30.898Z,97557.00
2019-04-25T22:05:00.574Z,97576.00
2019-04-25T22:07:30.425Z,97576.00
2019-04-25T22:10:00.216Z,97576.00
2019-04-25T22:12:29.492Z,97581.00
2019-04-25T22:14:59.325Z,97588.00
2019-04-25T22:17:28.850Z,97582.00
2019-04-25T22:19:58.464Z,97573.00
2019-04-25T22:22:28.026Z,97572.00
2019-04-25T22:24:58.519Z,97573.00
2019-04-25T22:27:29.502Z,97577.00
2019-04-25T22:29:59.889Z,97579.00
2019-04-25T22:32:34.169Z,97580.00
2019-04-25T22:35:08.124Z,97584.00
2019-04-25T22:37:37.396Z,97580.00
2019-04-25T22:40:07.499Z,97587.00
2019-04-25T22:42:36.735Z,97584.00
2019-04-25T22:45:08.002Z,97591.00
2019-04-25T22:47:37.511Z,97588.00
2019-04-25T22:50:08.581Z,97593.00
2019-04-25T22:52:38.516Z,97586.00
2019-04-25T22:55:08.329Z,97578.00
2019-04-25T22:57:37.884Z,97565.00
2019-04-25T23:00:09.700Z,97576.00
2019-04-25T23:02:41.152Z,97574.00
2019-04-25T23:05:22.558Z,97579.00
2019-04-25T23:07:51.838Z,97581.00
2019-04-25T23:10:21.380Z,97577.00
2019-04-25T23:12:50.658Z,97591.00
2019-04-25T23:15:19.937Z,97573.00
2019-04-25T23:17:49.556Z,97589.00
2019-04-25T23:20:19.107Z,97582.00
2019-04-25T23:22:48.379Z,97577.00
2019-04-25T23:25:19.569Z,97555.00
2019-04-25T23:28:02.421Z,97549.00
2019-04-25T23:30:34.502Z,97559.00
2019-04-25T23:33:04.092Z,97562.00
2019-04-25T23:35:35.228Z,97545.00
2019-04-25T23:38:05.718Z,97550.00
2019-04-25T23:40:35.381Z,97555.00
2019-04-25T23:43:05.209Z,97562.00
2019-04-25T23:45:34.742Z,97565.00
2019-04-25T23:48:03.978Z,97571.00
2019-04-25T23:50:33.431Z,97565.00
2019-04-25T23:53:02.707Z,97567.00
2019-04-25T23:55:32.354Z,97550.00
2019-04-25T23:58:01.627Z,97550.00
